Terminal Aerodrome Forecast
Issued by NWS

Home | Current Version | Previous Version | Text Only | Print | Product List | Glossary On
Versions: 1 2 3 4 5 6 7 8 9 10 11 12 13 14 15
000
FTUS43 KICT 181130
TAFCNU
TAF
KCNU 181130Z 1812/1912 18007KT P6SM BKN120
     FM181900 18011KT P6SM BKN200
     FM190000 17006KT P6SM SCT040 BKN080
     FM190600 17004KT P6SM BKN060
     FM191000 15004KT P6SM BKN008=

USA.gov is the U.S. government's official web portal to all federal, state and local government web resources and services.